createdAt,value
2022-12-11T00:00:46.679Z,99445.97
2022-12-11T00:03:16.117Z,99443.94
2022-12-11T00:05:43.923Z,99440.44
2022-12-11T00:08:11.152Z,99442.44
2022-12-11T00:10:38.237Z,99447.31
2022-12-11T00:13:05.659Z,99456.00
2022-12-11T00:15:32.285Z,99449.63
2022-12-11T00:17:58.807Z,99449.97
2022-12-11T00:20:25.489Z,99453.66
2022-12-11T00:22:51.963Z,99459.38
2022-12-11T00:25:18.923Z,99462.38
2022-12-11T00:27:47.042Z,99456.69
2022-12-11T00:30:14.943Z,99452.81
2022-12-11T00:32:41.489Z,99457.34
2022-12-11T00:35:09.087Z,99458.34
2022-12-11T00:37:35.894Z,99452.13
2022-12-11T00:40:02.511Z,99450.97
2022-12-11T00:42:29.076Z,99453.84
2022-12-11T00:44:56.446Z,99452.13
2022-12-11T00:47:22.983Z,99452.81
2022-12-11T00:49:50.112Z,99451.81
2022-12-11T00:52:18.175Z,99456.66
2022-12-11T00:54:45.035Z,99452.47
2022-12-11T00:57:11.577Z,99441.91
2022-12-11T00:59:38.160Z,99448.66
2022-12-11T01:02:04.842Z,99449.47
2022-12-11T01:04:31.417Z,99454.00
2022-12-11T01:06:57.958Z,99450.00
2022-12-11T01:10:03.068Z,99451.47
2022-12-11T01:12:29.580Z,99452.31
2022-12-11T01:14:56.133Z,99461.34
2022-12-11T01:17:23.103Z,99451.97
2022-12-11T01:19:49.617Z,99451.16
2022-12-11T01:22:16.087Z,99451.16
2022-12-11T01:24:42.668Z,99449.63
2022-12-11T01:27:09.238Z,99441.59
2022-12-11T01:29:35.704Z,99434.53
2022-12-11T01:32:02.167Z,99428.34
2022-12-11T01:34:33.283Z,99422.81
2022-12-11T01:36:59.715Z,99413.94
2022-12-11T01:39:26.176Z,99411.44
2022-12-11T01:41:57.967Z,99396.00
2022-12-11T01:44:24.472Z,99403.06
2022-12-11T01:46:51.124Z,99405.56
2022-12-11T01:49:20.735Z,99396.38
2022-12-11T01:52:03.091Z,99385.97
2022-12-11T01:54:30.118Z,99389.13
2022-12-11T01:57:01.409Z,99384.31
2022-12-11T01:59:31.175Z,99388.66
2022-12-11T02:02:08.099Z,99387.31
2022-12-11T02:04:37.562Z,99382.28
2022-12-11T02:07:05.229Z,99383.28
2022-12-11T02:09:37.733Z,99372.88
2022-12-11T02:12:22.732Z,99375.25
2022-12-11T02:15:08.317Z,99367.22
2022-12-11T02:17:47.587Z,99365.69
2022-12-11T02:20:25.832Z,99361.69
2022-12-11T02:23:16.711Z,99366.53
2022-12-11T02:26:20.487Z,99370.22
2022-12-11T02:29:00.958Z,99365.19
2022-12-11T02:31:39.388Z,99363.19
2022-12-11T02:34:12.551Z,99359.84
2022-12-11T02:36:44.008Z,99366.19
2022-12-11T02:39:13.111Z,99362.34
2022-12-11T02:41:44.575Z,99367.22
2022-12-11T02:44:14.217Z,99365.69
2022-12-11T02:46:42.142Z,99355.47
2022-12-11T02:49:11.828Z,99345.44
2022-12-11T02:51:41.163Z,99341.09
2022-12-11T02:54:16.210Z,99337.06
2022-12-11T02:56:52.644Z,99346.78
2022-12-11T02:59:28.663Z,99348.44
2022-12-11T03:04:26.940Z,99350.28
2022-12-11T03:06:56.516Z,99348.44
2022-12-11T03:09:23.124Z,99349.09
2022-12-11T03:11:49.634Z,99364.16
2022-12-11T03:14:16.155Z,99358.13
2022-12-11T03:16:58.059Z,99358.13
2022-12-11T03:19:30.649Z,99358.97
2022-12-11T03:22:22.127Z,99349.91
2022-12-11T03:24:59.320Z,99364.16
2022-12-11T03:27:34.798Z,99367.00
2022-12-11T03:30:16.231Z,99360.09
2022-12-11T03:33:05.049Z,99361.97
2022-12-11T03:35:56.686Z,99366.50
2022-12-11T03:38:38.963Z,99371.16
2022-12-11T03:41:08.698Z,99357.75
2022-12-11T03:43:36.335Z,99371.47
2022-12-11T03:46:03.324Z,99370.97
2022-12-11T03:48:36.085Z,99360.44
2022-12-11T03:51:05.518Z,99361.06
2022-12-11T03:53:34.349Z,99363.13
2022-12-11T03:56:02.714Z,99364.75
2022-12-11T03:58:29.863Z,99364.75
2022-12-11T04:00:56.374Z,99361.75
2022-12-11T04:03:23.257Z,99358.06
2022-12-11T04:05:56.030Z,99363.44
2022-12-11T04:08:23.203Z,99352.41
2022-12-11T04:11:13.597Z,99338.03
2022-12-11T04:13:41.499Z,99343.03
2022-12-11T04:16:08.641Z,99334.69
2022-12-11T04:19:07.820Z,99333.16
2022-12-11T04:21:52.780Z,99336.84
2022-12-11T04:24:19.400Z,99335.69
2022-12-11T04:26:47.797Z,99329.16
2022-12-11T04:29:15.158Z,99332.00
2022-12-11T04:31:41.771Z,99334.00
2022-12-11T04:34:08.361Z,99326.31
2022-12-11T04:36:34.981Z,99331.31
2022-12-11T04:39:01.654Z,99333.16
2022-12-11T04:41:28.406Z,99335.69
2022-12-11T04:43:54.915Z,99330.97
2022-12-11T04:46:24.067Z,99329.97
2022-12-11T04:48:57.078Z,99336.66
2022-12-11T04:51:24.426Z,99331.63
2022-12-11T04:53:50.965Z,99324.25
2022-12-11T04:56:17.675Z,99324.72
2022-12-11T04:58:45.011Z,99320.88
2022-12-11T05:01:14.259Z,99326.38
2022-12-11T05:03:41.107Z,99311.16
2022-12-11T05:06:09.096Z,99315.53
2022-12-11T05:08:37.380Z,99310.38
2022-12-11T05:11:06.944Z,99305.66
2022-12-11T05:13:34.070Z,99294.75
2022-12-11T05:16:04.084Z,99289.44
2022-12-11T05:18:30.657Z,99284.94
2022-12-11T05:21:03.203Z,99286.59
2022-12-11T05:23:30.518Z,99283.59
2022-12-11T05:26:00.450Z,99272.91
2022-12-11T05:28:30.725Z,99273.38
2022-12-11T05:31:05.190Z,99273.03
2022-12-11T05:33:32.561Z,99273.38
2022-12-11T05:35:59.190Z,99266.16
2022-12-11T05:38:25.958Z,99264.34
2022-12-11T05:41:03.899Z,99270.19
2022-12-11T05:43:33.440Z,99268.03
2022-12-11T05:46:15.657Z,99267.19
2022-12-11T05:48:43.962Z,99252.78
2022-12-11T05:51:11.346Z,99250.13
2022-12-11T05:53:38.693Z,99254.28
2022-12-11T05:56:11.933Z,99254.28
2022-12-11T05:58:40.275Z,99247.75
2022-12-11T06:01:27.254Z,99253.94
2022-12-11T06:03:55.084Z,99243.25
2022-12-11T06:06:22.399Z,99251.75
2022-12-11T06:08:57.174Z,99245.91
2022-12-11T06:11:24.608Z,99242.03
2022-12-11T06:13:52.001Z,99246.88
2022-12-11T06:16:19.098Z,99245.88
2022-12-11T06:18:46.101Z,99243.69
2022-12-11T06:21:18.937Z,99245.91
2022-12-11T06:23:47.487Z,99243.84
2022-12-11T06:26:15.099Z,99252.06
2022-12-11T06:28:42.100Z,99245.69
2022-12-11T06:31:08.795Z,99247.19
2022-12-11T06:33:35.589Z,99260.56
2022-12-11T06:36:10.858Z,99254.19
2022-12-11T06:38:38.140Z,99255.50
2022-12-11T06:41:05.751Z,99250.00
2022-12-11T06:43:33.416Z,99253.50
2022-12-11T06:46:04.166Z,99259.00
2022-12-11T06:48:31.510Z,99260.78
2022-12-11T06:50:58.018Z,99256.47
2022-12-11T06:53:24.496Z,99257.13
2022-12-11T06:55:51.041Z,99264.13
2022-12-11T06:58:17.666Z,99258.34
2022-12-11T07:00:45.490Z,99265.72
2022-12-11T07:03:14.959Z,99264.50
2022-12-11T07:05:41.535Z,99251.97
2022-12-11T07:08:08.083Z,99260.66
2022-12-11T07:10:34.683Z,99256.16
2022-12-11T07:13:01.180Z,99253.44
2022-12-11T07:15:27.676Z,99255.59
2022-12-11T07:17:54.382Z,99250.75
2022-12-11T07:20:20.897Z,99252.16
2022-12-11T07:22:47.378Z,99252.63
2022-12-11T07:25:15.860Z,99251.63
2022-12-11T07:27:42.395Z,99247.41
2022-12-11T07:30:09.909Z,99242.22
2022-12-11T07:32:36.593Z,99239.69
2022-12-11T07:35:04.034Z,99235.56
2022-12-11T07:37:30.576Z,99237.00
2022-12-11T07:39:57.034Z,99235.84
2022-12-11T07:42:23.830Z,99222.28
2022-12-11T07:44:50.566Z,99216.09
2022-12-11T07:47:17.050Z,99219.06
2022-12-11T07:49:43.533Z,99222.06
2022-12-11T07:52:10.173Z,99212.06
2022-12-11T07:54:36.970Z,99214.94
2022-12-11T07:57:03.514Z,99209.75
2022-12-11T07:59:30.065Z,99205.56
2022-12-11T08:01:56.633Z,99221.75
2022-12-11T08:04:23.718Z,99211.47
2022-12-11T08:06:50.214Z,99212.63
2022-12-11T08:09:20.901Z,99211.97
2022-12-11T08:11:50.006Z,99216.28
2022-12-11T08:14:16.622Z,99207.94
2022-12-11T08:16:44.277Z,99212.47
2022-12-11T08:19:14.076Z,99205.97
2022-12-11T08:21:41.172Z,99207.78
2022-12-11T08:24:08.636Z,99205.31
2022-12-11T08:26:35.264Z,99205.50
2022-12-11T08:29:02.197Z,99193.84
2022-12-11T08:31:29.854Z,99191.53
2022-12-11T08:33:56.897Z,99185.31
2022-12-11T08:36:24.040Z,99185.19
2022-12-11T08:38:51.377Z,99181.03
2022-12-11T08:41:29.046Z,99181.34
2022-12-11T08:43:57.698Z,99189.56
2022-12-11T08:46:27.747Z,99179.66
2022-12-11T08:48:55.765Z,99186.53
2022-12-11T08:51:24.719Z,99182.88
2022-12-11T08:53:51.908Z,99183.84
2022-12-11T08:56:20.600Z,99181.00
2022-12-11T08:58:47.886Z,99170.34
2022-12-11T09:01:18.062Z,99178.16
2022-12-11T09:03:45.083Z,99172.44
2022-12-11T09:06:14.745Z,99172.97
2022-12-11T09:08:47.196Z,99170.84
2022-12-11T09:11:20.231Z,99162.81
2022-12-11T09:13:47.004Z,99170.78
2022-12-11T09:16:16.874Z,99156.41
2022-12-11T09:18:46.922Z,99143.06
2022-12-11T09:21:15.333Z,99137.03
2022-12-11T09:23:42.444Z,99150.25
2022-12-11T09:26:12.265Z,99152.06
2022-12-11T09:28:45.697Z,99134.88
2022-12-11T09:31:16.446Z,99130.84
2022-12-11T09:33:43.636Z,99118.97
2022-12-11T09:36:10.418Z,99124.50
2022-12-11T09:38:37.380Z,99113.78
2022-12-11T09:41:29.671Z,99117.16
2022-12-11T09:44:08.017Z,99106.13
2022-12-11T09:46:36.491Z,99096.59
2022-12-11T09:49:09.470Z,99099.59
2022-12-11T09:51:52.050Z,99092.06
2022-12-11T09:54:18.553Z,99087.41
2022-12-11T09:56:59.291Z,99090.22
2022-12-11T10:00:02.712Z,99082.16
2022-12-11T10:03:08.048Z,99073.03
2022-12-11T10:05:52.925Z,99076.03
2022-12-11T10:08:49.139Z,99073.69
2022-12-11T10:11:24.769Z,99076.84
2022-12-11T10:14:06.045Z,99075.13
2022-12-11T10:16:39.551Z,99065.13
2022-12-11T10:19:15.332Z,99066.63
2022-12-11T10:21:43.351Z,99064.16
2022-12-11T10:24:41.937Z,99065.81
2022-12-11T10:27:21.220Z,99059.28
2022-12-11T10:30:18.287Z,99056.78
2022-12-11T10:33:22.797Z,99051.56
2022-12-11T10:35:55.726Z,99043.97
2022-12-11T10:38:28.327Z,99039.59
2022-12-11T10:40:58.615Z,99043.72
2022-12-11T10:43:40.363Z,99038.13
2022-12-11T10:46:14.473Z,99043.38
2022-12-11T10:48:59.607Z,99034.88
2022-12-11T10:51:36.102Z,99024.66
2022-12-11T10:54:42.426Z,99025.69
2022-12-11T10:57:12.000Z,99013.44
2022-12-11T10:59:47.242Z,98997.91
2022-12-11T11:02:26.659Z,98995.19
2022-12-11T11:04:56.101Z,98995.31
2022-12-11T11:07:25.104Z,98992.94
2022-12-11T11:10:04.327Z,98985.31
2022-12-11T11:12:36.988Z,98979.81
2022-12-11T11:15:13.997Z,98986.00
2022-12-11T11:17:54.673Z,98980.16
2022-12-11T11:20:25.637Z,98972.81
2022-12-11T11:23:01.881Z,98973.16
2022-12-11T11:25:31.041Z,98973.75
2022-12-11T11:28:06.485Z,98969.81
2022-12-11T11:30:39.303Z,98963.25
2022-12-11T11:33:13.706Z,98965.25
2022-12-11T11:35:45.702Z,98961.72
2022-12-11T11:38:18.519Z,98959.78
2022-12-11T11:40:58.124Z,98960.78
2022-12-11T11:43:38.721Z,98951.72
2022-12-11T11:46:14.192Z,98949.84
2022-12-11T11:49:07.840Z,98945.66
2022-12-11T11:51:38.845Z,98950.75
2022-12-11T11:54:29.395Z,98934.53
2022-12-11T11:56:57.231Z,98946.16
2022-12-11T11:59:27.141Z,98938.66
2022-12-11T12:01:56.766Z,98941.16
2022-12-11T12:04:24.506Z,98941.53
2022-12-11T12:06:54.344Z,98944.69
2022-12-11T12:09:32.084Z,98943.16
2022-12-11T12:12:11.447Z,98941.13
2022-12-11T12:14:53.557Z,98947.03
2022-12-11T12:17:36.240Z,98933.00
2022-12-11T12:20:10.598Z,98937.78
2022-12-11T12:22:49.228Z,98936.06
2022-12-11T12:25:46.470Z,98933.28
2022-12-11T12:28:36.307Z,98933.88
2022-12-11T12:31:31.189Z,98933.47
2022-12-11T12:34:24.842Z,98926.28
2022-12-11T12:37:17.645Z,98934.22
2022-12-11T12:40:00.956Z,98932.59
2022-12-11T12:42:52.576Z,98929.50
2022-12-11T12:45:31.115Z,98921.13
2022-12-11T12:47:57.654Z,98912.00
2022-12-11T12:50:37.309Z,98907.41
2022-12-11T12:53:06.179Z,98910.84
2022-12-11T12:55:34.911Z,98903.66
2022-12-11T12:58:04.390Z,98901.22
2022-12-11T13:00:32.849Z,98902.56
2022-12-11T13:03:02.875Z,98907.44
2022-12-11T13:05:33.401Z,98900.91
2022-12-11T13:08:03.310Z,98903.00
2022-12-11T13:10:43.210Z,98902.94
2022-12-11T13:13:33.013Z,98907.53
2022-12-11T13:16:25.412Z,98906.53
2022-12-11T13:18:53.014Z,98896.00
2022-12-11T13:21:33.735Z,98894.56
2022-12-11T13:24:21.627Z,98892.56
2022-12-11T13:26:50.191Z,98901.09
2022-12-11T13:29:37.725Z,98901.56
2022-12-11T13:32:10.058Z,98896.06
2022-12-11T13:34:39.081Z,98908.31
2022-12-11T13:37:07.425Z,98899.41
2022-12-11T13:39:39.938Z,98903.94
2022-12-11T13:42:20.264Z,98904.97
2022-12-11T13:44:49.357Z,98908.50
2022-12-11T13:47:19.861Z,98905.72
2022-12-11T13:49:50.732Z,98900.38
2022-12-11T13:52:19.699Z,98898.03
2022-12-11T13:54:55.734Z,98896.91
2022-12-11T13:57:28.505Z,98890.97
2022-12-11T13:59:59.662Z,98891.69
2022-12-11T14:02:35.736Z,98889.06
2022-12-11T14:05:08.444Z,98890.31
2022-12-11T14:07:39.289Z,98898.56
2022-12-11T14:10:09.947Z,98895.09
2022-12-11T14:12:37.222Z,98890.97
2022-12-11T14:15:04.892Z,98888.56
2022-12-11T14:17:33.973Z,98891.38
2022-12-11T14:20:07.310Z,98885.69
2022-12-11T14:22:34.366Z,98883.00
2022-12-11T14:25:03.739Z,98883.13
2022-12-11T14:27:31.034Z,98875.84
2022-12-11T14:29:57.595Z,98871.53
2022-12-11T14:32:35.154Z,98879.03
2022-12-11T14:35:06.058Z,98870.34
2022-12-11T14:37:34.114Z,98870.28
2022-12-11T14:40:08.920Z,98872.91
2022-12-11T14:43:01.318Z,98864.94
2022-12-11T14:45:40.630Z,98860.28
2022-12-11T14:48:35.783Z,98866.31
2022-12-11T14:51:05.240Z,98858.22
2022-12-11T14:53:38.496Z,98867.16
2022-12-11T14:56:15.443Z,98869.66
2022-12-11T14:58:53.119Z,98875.84
2022-12-11T15:01:27.685Z,98869.78
2022-12-11T15:04:19.796Z,98860.50
2022-12-11T15:06:49.451Z,98841.44
2022-12-11T15:09:41.541Z,98843.91
2022-12-11T15:12:12.940Z,98848.22
2022-12-11T15:15:05.926Z,98856.78
2022-12-11T15:17:34.656Z,98868.50
2022-12-11T15:20:10.822Z,98863.19
2022-12-11T15:22:38.041Z,98871.94
2022-12-11T15:25:05.955Z,98866.56
2022-12-11T15:27:40.098Z,98866.25
2022-12-11T15:30:15.770Z,98849.72
2022-12-11T15:32:42.555Z,98859.25
2022-12-11T15:35:26.990Z,98873.22
2022-12-11T15:37:58.477Z,98868.03
2022-12-11T15:40:25.590Z,98873.22
2022-12-11T15:42:52.402Z,98867.41
2022-12-11T15:45:28.495Z,98870.63
2022-12-11T15:47:55.748Z,98870.75
2022-12-11T15:50:25.829Z,98868.28
2022-12-11T15:52:54.654Z,98870.22
2022-12-11T15:55:22.550Z,98869.53
2022-12-11T15:57:58.418Z,98869.50
2022-12-11T16:00:27.659Z,98873.56
2022-12-11T16:02:55.289Z,98870.19
2022-12-11T16:05:21.915Z,98866.56
2022-12-11T16:07:52.286Z,98863.47
2022-12-11T16:10:20.264Z,98861.34
2022-12-11T16:12:49.558Z,98866.50
2022-12-11T16:15:23.113Z,98863.44
2022-12-11T16:18:03.520Z,98865.06
2022-12-11T16:20:31.321Z,98865.31
2022-12-11T16:22:58.835Z,98858.22
2022-12-11T16:25:25.896Z,98850.66
2022-12-11T16:27:56.421Z,98848.47
2022-12-11T16:30:23.862Z,98842.75
2022-12-11T16:32:51.110Z,98854.31
2022-12-11T16:35:18.782Z,98856.09
2022-12-11T16:37:45.986Z,98865.00
2022-12-11T16:40:12.592Z,98857.50
2022-12-11T16:42:39.130Z,98853.47
2022-12-11T16:45:09.171Z,98857.72
2022-12-11T16:47:36.069Z,98863.19
2022-12-11T16:50:02.681Z,98852.94
2022-12-11T16:52:29.682Z,98862.50
2022-12-11T16:54:57.089Z,98869.13
2022-12-11T16:57:24.218Z,98866.38
2022-12-11T16:59:50.794Z,98860.50
2022-12-11T17:02:18.380Z,98867.88
2022-12-11T17:04:50.691Z,98861.84
2022-12-11T17:07:20.368Z,98868.13
2022-12-11T17:09:46.965Z,98871.19
2022-12-11T17:12:13.757Z,98872.84
2022-12-11T17:14:40.278Z,98874.75
2022-12-11T17:17:07.001Z,98868.94
2022-12-11T17:19:33.648Z,98862.41
2022-12-11T17:22:00.382Z,98856.44
2022-12-11T17:24:27.093Z,98861.03
2022-12-11T17:26:55.387Z,98857.44
2022-12-11T17:29:22.133Z,98851.44
2022-12-11T17:31:48.624Z,98850.63
2022-12-11T17:34:16.004Z,98853.81
2022-12-11T17:36:42.642Z,98852.03
2022-12-11T17:39:09.306Z,98846.88
2022-12-11T17:41:35.832Z,98848.41
2022-12-11T17:44:02.328Z,98845.38
2022-12-11T17:46:29.019Z,98848.16
2022-12-11T17:48:56.466Z,98854.38
2022-12-11T17:51:24.645Z,98845.81
2022-12-11T17:53:52.479Z,98845.94
2022-12-11T17:56:19.120Z,98850.53
2022-12-11T17:58:46.004Z,98853.31
2022-12-11T18:01:13.280Z,98852.22
2022-12-11T18:03:40.871Z,98861.47
2022-12-11T18:06:11.763Z,98863.44
2022-12-11T18:08:39.375Z,98864.94
2022-12-11T18:11:15.830Z,98865.59
2022-12-11T18:13:43.767Z,98870.22
2022-12-11T18:16:35.781Z,98871.91
2022-12-11T18:19:02.351Z,98878.56
2022-12-11T18:21:32.000Z,98879.75
2022-12-11T18:23:59.598Z,98874.41
2022-12-11T18:26:26.734Z,98865.22
2022-12-11T18:28:53.682Z,98864.28
2022-12-11T18:31:22.280Z,98856.66
2022-12-11T18:33:49.298Z,98859.53
2022-12-11T18:36:18.034Z,98854.34
2022-12-11T18:38:45.072Z,98853.50
2022-12-11T18:41:13.217Z,98856.53
2022-12-11T18:43:41.457Z,98854.16
2022-12-11T18:46:10.269Z,98858.06
2022-12-11T18:48:37.348Z,98861.50
2022-12-11T18:51:09.197Z,98858.91
2022-12-11T18:53:37.030Z,98850.66
2022-12-11T18:56:09.058Z,98844.91
2022-12-11T18:58:35.906Z,98846.31
2022-12-11T19:01:08.222Z,98855.00
2022-12-11T19:03:35.563Z,98856.91
2022-12-11T19:06:17.662Z,98856.13
2022-12-11T19:08:45.009Z,98850.91
2022-12-11T19:11:19.947Z,98842.16
2022-12-11T19:13:47.474Z,98835.09
2022-12-11T19:16:18.507Z,98832.03
2022-12-11T19:18:45.606Z,98826.56
2022-12-11T19:21:14.007Z,98825.25
2022-12-11T19:23:41.725Z,98827.47
2022-12-11T19:26:13.067Z,98818.41
2022-12-11T19:28:40.300Z,98822.44
2022-12-11T19:31:12.379Z,98823.75
2022-12-11T19:33:42.766Z,98825.97
2022-12-11T19:36:13.237Z,98807.69
2022-12-11T19:38:41.873Z,98805.03
2022-12-11T19:41:13.171Z,98803.25
2022-12-11T19:43:39.715Z,98804.44
2022-12-11T19:46:08.098Z,98815.13
2022-12-11T19:48:37.626Z,98809.47
2022-12-11T19:51:08.903Z,98809.38
2022-12-11T19:53:35.529Z,98807.63
2022-12-11T19:56:02.695Z,98811.75
2022-12-11T19:58:29.516Z,98820.50
2022-12-11T20:00:56.473Z,98814.75
2022-12-11T20:03:23.395Z,98828.50
2022-12-11T20:05:49.974Z,98836.09
2022-12-11T20:11:15.881Z,98836.53
2022-12-11T20:13:45.982Z,98824.13
2022-12-11T20:16:15.769Z,98826.44
2022-12-11T20:18:42.542Z,98816.97
2022-12-11T20:21:13.327Z,98816.03
2022-12-11T20:23:40.261Z,98822.63
2022-12-11T20:26:13.480Z,98818.19
2022-12-11T20:28:40.797Z,98815.16
2022-12-11T20:31:19.510Z,98815.47
2022-12-11T20:33:47.171Z,98825.28
2022-12-11T20:36:16.613Z,98816.84
2022-12-11T20:38:43.547Z,98824.47
2022-12-11T20:41:12.847Z,98821.78
2022-12-11T20:43:39.687Z,98822.53
2022-12-11T20:46:07.832Z,98820.69
2022-12-11T20:48:39.129Z,98817.88
2022-12-11T20:51:07.896Z,98813.31
2022-12-11T20:53:35.327Z,98808.53
2022-12-11T20:56:02.634Z,98811.44
2022-12-11T20:58:29.155Z,98804.91
2022-12-11T21:00:55.671Z,98801.34
2022-12-11T21:03:22.176Z,98804.44
2022-12-11T21:05:48.770Z,98803.28
2022-12-11T21:08:15.363Z,98807.13
2022-12-11T21:10:43.908Z,98805.00
2022-12-11T21:13:10.982Z,98807.03
2022-12-11T21:15:38.700Z,98808.31
2022-12-11T21:18:06.435Z,98812.41
2022-12-11T21:20:33.223Z,98807.91
2022-12-11T21:22:59.994Z,98803.25
2022-12-11T21:25:27.418Z,98807.63
2022-12-11T21:27:54.024Z,98811.75
2022-12-11T21:30:20.576Z,98808.72
2022-12-11T21:32:47.603Z,98803.13
2022-12-11T21:35:14.427Z,98798.50
2022-12-11T21:37:41.909Z,98801.16
2022-12-11T21:40:09.462Z,98803.38
2022-12-11T21:42:36.091Z,98798.63
2022-12-11T21:47:50.248Z,98814.09
2022-12-11T21:50:17.242Z,98813.00
2022-12-11T21:52:44.166Z,98804.06
2022-12-11T21:55:12.819Z,98807.88
2022-12-11T21:57:39.818Z,98807.44
2022-12-11T22:00:06.878Z,98803.19
2022-12-11T22:02:39.074Z,98808.34
2022-12-11T22:05:07.702Z,98810.19
2022-12-11T22:07:34.202Z,98810.03
2022-12-11T22:10:00.736Z,98820.03
2022-12-11T22:12:28.660Z,98819.31
2022-12-11T22:14:55.174Z,98812.31
2022-12-11T22:17:21.998Z,98800.16
2022-12-11T22:19:48.722Z,98802.16
2022-12-11T22:22:15.214Z,98797.84
2022-12-11T22:24:42.613Z,98807.66
2022-12-11T22:27:09.270Z,98808.31
2022-12-11T22:29:35.790Z,98811.34
2022-12-11T22:32:02.634Z,98819.56
2022-12-11T22:34:29.258Z,98822.38
2022-12-11T22:36:56.667Z,98819.38
2022-12-11T22:39:24.536Z,98820.34
2022-12-11T22:41:51.100Z,98818.00
2022-12-11T22:44:20.164Z,98814.03
2022-12-11T22:46:50.169Z,98811.81
2022-12-11T22:49:18.275Z,98810.94
2022-12-11T22:51:45.312Z,98814.34
2022-12-11T22:54:11.975Z,98817.28
2022-12-11T22:56:38.761Z,98812.13
2022-12-11T22:59:05.312Z,98808.78
2022-12-11T23:01:34.782Z,98807.41
2022-12-11T23:04:01.518Z,98804.28
2022-12-11T23:06:28.659Z,98807.78
2022-12-11T23:08:59.224Z,98804.84
2022-12-11T23:11:34.917Z,98795.78
2022-12-11T23:14:01.566Z,98802.47
2022-12-11T23:16:28.444Z,98802.31
2022-12-11T23:18:56.099Z,98804.19
2022-12-11T23:21:23.242Z,98798.63
2022-12-11T23:23:50.419Z,98806.31
2022-12-11T23:26:19.238Z,98808.81
2022-12-11T23:28:46.820Z,98810.25
2022-12-11T23:31:13.955Z,98811.78
2022-12-11T23:33:40.649Z,98821.41
2022-12-11T23:36:08.033Z,98817.88
2022-12-11T23:38:34.609Z,98821.53
2022-12-11T23:41:02.267Z,98816.56
2022-12-11T23:43:28.862Z,98819.66
2022-12-11T23:45:55.430Z,98809.91
2022-12-11T23:48:22.003Z,98817.97
2022-12-11T23:50:48.758Z,98806.56
2022-12-11T23:53:15.481Z,98807.69
2022-12-11T23:55:44.349Z,98815.13
2022-12-11T23:58:11.093Z,98812.78
